Beskyttet: Booking 9-394

Dette indhold er adgangskodebeskyttet. For at se det, indtast venligst din adgangskode nedenfor:

TAF / METAR
EKSN 241129Z 2411/2414 22012KT 8000 SCT010 BKN020 TEMPO 2411/2414 2500 -RADZ BR BKN008
TAF / METAR
EKYT 241124Z 2412/2512 20012KT 2000 -RA BKN008 BECMG 2412/2414 25014KT 9999 BKN015 TEMPO 2414/2421 6000 -RADZ BKN010 BECMG 2421/2424 28012G22KT
TAF / METAR
ESGP" Sorry, either there are no data available for your request or you did not enter any valid ICAO airport abbreviations. See stations.txt for a list of known METAR and TAF locations. Then go back to the ADDS METARs or TAFs page and try again  Please try again and, if problems persist, then send mail to ncep.awc.adds@noaa.gov